首页
METAR-TAF:

METAR-TAF

机场 :

索尔诺克, 匈牙利

纬度: 47-07N, 经度: 020-14E, 海拔: 89米

当前天气观测

该预报发布于22分钟前的18:45 UTC
风速2节,风向
温度 9°C
湿度 71%
气压 1012 hPa
能见度10公里或以上
1500米以下无云,无积雨云

METAR: LHSN 281845Z 36002KT CAVOK 09/04 Q1012 TEMPO FM1930 -SHRA RMK BLU

时间: 20:07 (19:07 UTC)

预报

该预报发布于1小时和52分钟前的17:15 UTC
预报有效从28日的 18点(UTC)到 29日的 03点(UTC)
风速3节,风向多变
能见度10公里或以上
1500米以下无云,无积雨云
短暂存在
从 28日的 18点(UTC)到 29日的 03点(UTC)
风速13节,风向,有时为24节阵风
能見度: 8000
散云层高于4000英尺, 塔状积云.
多云层高于6000英尺
阵雨

TAF: LHSN 281715Z 2818/2903 VRB03KT CAVOK TEMPO 2818/2903 36013G24KT 8000 SHRA SCT040TCU BKN060

超过4000个机场的气象观测和天气预报(METAR&TAF报告)。

可查询的气象台以黄色和红色小点在地图上表示。

将鼠标移到小点上方,可查看气象台名称。

然后点击查看天气观测和预报。

如需切换地图:点击带黑十字的绿色按钮放大地图;点击带横线的绿色按钮缩小地图;或者点击绿色箭头查看邻近地区的地图。


METAR-TAF: